sensor_id;sensor_type;location;lat;lon;timestamp;P1;durP1;ratioP1;P2;durP2;ratioP2
12593;SDS011;6362;50.208;9.182;2023-07-30T00:01:35;3.38;;;1.70;;
12593;SDS011;6362;50.208;9.182;2023-07-30T00:04:01;2.63;;;2.13;;
12593;SDS011;6362;50.208;9.182;2023-07-30T00:06:26;4.68;;;2.25;;
12593;SDS011;6362;50.208;9.182;2023-07-30T00:08:51;2.28;;;1.90;;
12593;SDS011;6362;50.208;9.182;2023-07-30T00:11:17;2.67;;;2.40;;
12593;SDS011;6362;50.208;9.182;2023-07-30T00:13:42;3.80;;;2.38;;
12593;SDS011;6362;50.208;9.182;2023-07-30T00:16:08;5.32;;;2.22;;
12593;SDS011;6362;50.208;9.182;2023-07-30T00:18:33;4.13;;;2.50;;
12593;SDS011;6362;50.208;9.182;2023-07-30T00:20:59;2.97;;;2.47;;
12593;SDS011;6362;50.208;9.182;2023-07-30T00:23:24;2.70;;;2.38;;
12593;SDS011;6362;50.208;9.182;2023-07-30T00:25:50;4.03;;;2.55;;
12593;SDS011;6362;50.208;9.182;2023-07-30T00:28:15;5.65;;;2.60;;
12593;SDS011;6362;50.208;9.182;2023-07-30T00:30:40;2.80;;;2.13;;
12593;SDS011;6362;50.208;9.182;2023-07-30T00:33:06;3.83;;;2.47;;
12593;SDS011;6362;50.208;9.182;2023-07-30T00:35:31;3.58;;;2.78;;
12593;SDS011;6362;50.208;9.182;2023-07-30T00:37:57;4.75;;;2.65;;
12593;SDS011;6362;50.208;9.182;2023-07-30T00:40:22;4.07;;;2.80;;
12593;SDS011;6362;50.208;9.182;2023-07-30T00:42:48;4.38;;;2.70;;
12593;SDS011;6362;50.208;9.182;2023-07-30T00:45:13;4.22;;;2.50;;
12593;SDS011;6362;50.208;9.182;2023-07-30T00:47:39;3.55;;;2.85;;
12593;SDS011;6362;50.208;9.182;2023-07-30T00:50:06;4.85;;;2.80;;
12593;SDS011;6362;50.208;9.182;2023-07-30T00:52:32;5.78;;;2.95;;
12593;SDS011;6362;50.208;9.182;2023-07-30T00:54:59;3.00;;;2.50;;
12593;SDS011;6362;50.208;9.182;2023-07-30T00:57:27;3.95;;;2.88;;
12593;SDS011;6362;50.208;9.182;2023-07-30T00:59:53;3.75;;;2.85;;
12593;SDS011;6362;50.208;9.182;2023-07-30T01:02:21;3.40;;;2.90;;
12593;SDS011;6362;50.208;9.182;2023-07-30T01:04:46;2.63;;;2.20;;
12593;SDS011;6362;50.208;9.182;2023-07-30T01:07:12;3.63;;;2.90;;
12593;SDS011;6362;50.208;9.182;2023-07-30T01:09:37;4.10;;;2.58;;
12593;SDS011;6362;50.208;9.182;2023-07-30T01:12:03;4.40;;;2.50;;
12593;SDS011;6362;50.208;9.182;2023-07-30T01:14:30;3.08;;;2.50;;
12593;SDS011;6362;50.208;9.182;2023-07-30T01:16:56;3.67;;;2.92;;
12593;SDS011;6362;50.208;9.182;2023-07-30T01:19:22;2.95;;;2.35;;
12593;SDS011;6362;50.208;9.182;2023-07-30T01:21:48;6.03;;;2.42;;
12593;SDS011;6362;50.208;9.182;2023-07-30T01:24:13;3.00;;;2.67;;
12593;SDS011;6362;50.208;9.182;2023-07-30T01:26:40;2.65;;;2.30;;
12593;SDS011;6362;50.208;9.182;2023-07-30T01:29:11;4.07;;;2.58;;
12593;SDS011;6362;50.208;9.182;2023-07-30T01:31:41;2.83;;;2.50;;
12593;SDS011;6362;50.208;9.182;2023-07-30T01:34:09;3.13;;;2.83;;
12593;SDS011;6362;50.208;9.182;2023-07-30T01:36:37;2.83;;;2.40;;
12593;SDS011;6362;50.208;9.182;2023-07-30T01:39:03;4.88;;;3.25;;
12593;SDS011;6362;50.208;9.182;2023-07-30T01:41:30;6.05;;;2.70;;
12593;SDS011;6362;50.208;9.182;2023-07-30T01:43:55;3.78;;;2.53;;
12593;SDS011;6362;50.208;9.182;2023-07-30T01:46:21;3.47;;;3.00;;
12593;SDS011;6362;50.208;9.182;2023-07-30T01:48:46;3.83;;;2.28;;
12593;SDS011;6362;50.208;9.182;2023-07-30T01:51:11;3.47;;;2.70;;
12593;SDS011;6362;50.208;9.182;2023-07-30T01:53:37;3.90;;;2.40;;
12593;SDS011;6362;50.208;9.182;2023-07-30T01:56:02;4.60;;;2.78;;
12593;SDS011;6362;50.208;9.182;2023-07-30T01:58:28;3.72;;;2.58;;
12593;SDS011;6362;50.208;9.182;2023-07-30T02:00:53;4.00;;;2.90;;
12593;SDS011;6362;50.208;9.182;2023-07-30T02:03:18;4.25;;;2.95;;
12593;SDS011;6362;50.208;9.182;2023-07-30T02:05:44;6.88;;;3.33;;
12593;SDS011;6362;50.208;9.182;2023-07-30T02:08:09;6.50;;;3.03;;
12593;SDS011;6362;50.208;9.182;2023-07-30T02:10:35;3.15;;;2.78;;
12593;SDS011;6362;50.208;9.182;2023-07-30T02:13:00;5.95;;;2.80;;
12593;SDS011;6362;50.208;9.182;2023-07-30T02:15:26;4.93;;;2.83;;
12593;SDS011;6362;50.208;9.182;2023-07-30T02:17:51;7.00;;;2.97;;
12593;SDS011;6362;50.208;9.182;2023-07-30T02:20:16;4.75;;;2.70;;
12593;SDS011;6362;50.208;9.182;2023-07-30T02:22:42;4.72;;;3.00;;
12593;SDS011;6362;50.208;9.182;2023-07-30T02:25:07;5.32;;;3.15;;
12593;SDS011;6362;50.208;9.182;2023-07-30T02:27:33;4.22;;;2.85;;
12593;SDS011;6362;50.208;9.182;2023-07-30T02:29:58;4.22;;;2.88;;
12593;SDS011;6362;50.208;9.182;2023-07-30T02:32:23;3.67;;;2.72;;
12593;SDS011;6362;50.208;9.182;2023-07-30T02:34:49;3.30;;;2.85;;
12593;SDS011;6362;50.208;9.182;2023-07-30T02:37:14;3.33;;;2.42;;
12593;SDS011;6362;50.208;9.182;2023-07-30T02:39:40;4.50;;;2.88;;
12593;SDS011;6362;50.208;9.182;2023-07-30T02:42:06;4.88;;;2.90;;
12593;SDS011;6362;50.208;9.182;2023-07-30T02:44:31;4.00;;;2.95;;
12593;SDS011;6362;50.208;9.182;2023-07-30T02:46:56;4.30;;;3.10;;
12593;SDS011;6362;50.208;9.182;2023-07-30T02:49:22;9.18;;;2.83;;
12593;SDS011;6362;50.208;9.182;2023-07-30T02:51:47;3.80;;;2.75;;
12593;SDS011;6362;50.208;9.182;2023-07-30T02:54:14;5.45;;;3.20;;
12593;SDS011;6362;50.208;9.182;2023-07-30T02:56:41;4.13;;;3.25;;
12593;SDS011;6362;50.208;9.182;2023-07-30T02:59:07;3.47;;;2.72;;
12593;SDS011;6362;50.208;9.182;2023-07-30T03:01:32;7.10;;;3.38;;
12593;SDS011;6362;50.208;9.182;2023-07-30T03:03:57;4.65;;;3.25;;
12593;SDS011;6362;50.208;9.182;2023-07-30T03:06:23;5.78;;;3.30;;
12593;SDS011;6362;50.208;9.182;2023-07-30T03:08:48;6.00;;;3.05;;
12593;SDS011;6362;50.208;9.182;2023-07-30T03:11:14;5.65;;;2.85;;
12593;SDS011;6362;50.208;9.182;2023-07-30T03:13:39;4.85;;;3.47;;
12593;SDS011;6362;50.208;9.182;2023-07-30T03:16:04;3.83;;;3.17;;
12593;SDS011;6362;50.208;9.182;2023-07-30T03:18:30;4.20;;;3.00;;
12593;SDS011;6362;50.208;9.182;2023-07-30T03:21:01;4.82;;;3.00;;
12593;SDS011;6362;50.208;9.182;2023-07-30T03:23:27;4.57;;;2.70;;
12593;SDS011;6362;50.208;9.182;2023-07-30T03:25:53;6.15;;;3.30;;
12593;SDS011;6362;50.208;9.182;2023-07-30T03:28:18;4.60;;;3.55;;
12593;SDS011;6362;50.208;9.182;2023-07-30T03:30:43;6.13;;;2.92;;
12593;SDS011;6362;50.208;9.182;2023-07-30T03:33:09;4.28;;;2.90;;
12593;SDS011;6362;50.208;9.182;2023-07-30T03:35:34;4.38;;;3.28;;
12593;SDS011;6362;50.208;9.182;2023-07-30T03:38:00;5.68;;;3.10;;
12593;SDS011;6362;50.208;9.182;2023-07-30T03:40:25;8.45;;;3.42;;
12593;SDS011;6362;50.208;9.182;2023-07-30T03:42:50;6.30;;;3.45;;
12593;SDS011;6362;50.208;9.182;2023-07-30T03:45:16;5.57;;;3.28;;
12593;SDS011;6362;50.208;9.182;2023-07-30T03:47:41;4.45;;;3.28;;
12593;SDS011;6362;50.208;9.182;2023-07-30T03:50:07;6.68;;;2.90;;
12593;SDS011;6362;50.208;9.182;2023-07-30T03:52:33;3.55;;;2.92;;
12593;SDS011;6362;50.208;9.182;2023-07-30T03:54:58;4.25;;;3.03;;
12593;SDS011;6362;50.208;9.182;2023-07-30T03:57:23;6.65;;;3.13;;
12593;SDS011;6362;50.208;9.182;2023-07-30T03:59:49;3.95;;;3.15;;
12593;SDS011;6362;50.208;9.182;2023-07-30T04:02:14;6.30;;;3.38;;
12593;SDS011;6362;50.208;9.182;2023-07-30T04:04:41;3.78;;;2.78;;
12593;SDS011;6362;50.208;9.182;2023-07-30T04:07:08;4.50;;;3.10;;
12593;SDS011;6362;50.208;9.182;2023-07-30T04:09:34;4.72;;;3.13;;
12593;SDS011;6362;50.208;9.182;2023-07-30T04:11:59;6.38;;;3.28;;
12593;SDS011;6362;50.208;9.182;2023-07-30T04:14:25;4.65;;;3.05;;
12593;SDS011;6362;50.208;9.182;2023-07-30T04:16:50;4.60;;;3.60;;
12593;SDS011;6362;50.208;9.182;2023-07-30T04:19:15;6.45;;;2.90;;
12593;SDS011;6362;50.208;9.182;2023-07-30T04:21:41;5.88;;;3.08;;
12593;SDS011;6362;50.208;9.182;2023-07-30T04:24:06;5.68;;;3.10;;
12593;SDS011;6362;50.208;9.182;2023-07-30T04:26:31;7.75;;;2.90;;
12593;SDS011;6362;50.208;9.182;2023-07-30T04:28:57;4.72;;;3.28;;
12593;SDS011;6362;50.208;9.182;2023-07-30T04:31:22;4.78;;;3.25;;
12593;SDS011;6362;50.208;9.182;2023-07-30T04:33:48;5.82;;;3.50;;
12593;SDS011;6362;50.208;9.182;2023-07-30T04:36:13;3.85;;;2.90;;
12593;SDS011;6362;50.208;9.182;2023-07-30T04:38:38;3.78;;;3.10;;
12593;SDS011;6362;50.208;9.182;2023-07-30T04:41:04;3.67;;;2.88;;
12593;SDS011;6362;50.208;9.182;2023-07-30T04:43:29;3.90;;;3.10;;
12593;SDS011;6362;50.208;9.182;2023-07-30T04:45:55;4.85;;;3.10;;
12593;SDS011;6362;50.208;9.182;2023-07-30T04:48:20;4.88;;;2.95;;
12593;SDS011;6362;50.208;9.182;2023-07-30T04:50:46;4.15;;;3.10;;
12593;SDS011;6362;50.208;9.182;2023-07-30T04:53:11;4.68;;;3.20;;
12593;SDS011;6362;50.208;9.182;2023-07-30T04:55:36;3.83;;;2.83;;
12593;SDS011;6362;50.208;9.182;2023-07-30T04:58:02;4.22;;;3.00;;
12593;SDS011;6362;50.208;9.182;2023-07-30T05:00:28;6.57;;;3.03;;
12593;SDS011;6362;50.208;9.182;2023-07-30T05:02:54;4.00;;;2.97;;
12593;SDS011;6362;50.208;9.182;2023-07-30T05:05:19;3.25;;;2.70;;
12593;SDS011;6362;50.208;9.182;2023-07-30T05:07:44;3.33;;;2.13;;
12593;SDS011;6362;50.208;9.182;2023-07-30T05:10:10;5.35;;;3.15;;
12593;SDS011;6362;50.208;9.182;2023-07-30T05:12:36;4.32;;;3.15;;
12593;SDS011;6362;50.208;9.182;2023-07-30T05:15:02;3.70;;;3.22;;
12593;SDS011;6362;50.208;9.182;2023-07-30T05:17:28;3.05;;;2.67;;
12593;SDS011;6362;50.208;9.182;2023-07-30T05:19:55;14.02;;;4.45;;
12593;SDS011;6362;50.208;9.182;2023-07-30T05:22:20;3.45;;;2.60;;
12593;SDS011;6362;50.208;9.182;2023-07-30T05:24:46;3.45;;;2.60;;
12593;SDS011;6362;50.208;9.182;2023-07-30T05:27:11;4.88;;;2.58;;
12593;SDS011;6362;50.208;9.182;2023-07-30T05:29:37;2.28;;;1.88;;
12593;SDS011;6362;50.208;9.182;2023-07-30T05:32:03;3.17;;;2.47;;
12593;SDS011;6362;50.208;9.182;2023-07-30T05:34:29;3.78;;;2.40;;
12593;SDS011;6362;50.208;9.182;2023-07-30T05:36:54;4.50;;;2.75;;
12593;SDS011;6362;50.208;9.182;2023-07-30T05:39:20;2.22;;;2.03;;
12593;SDS011;6362;50.208;9.182;2023-07-30T05:41:45;5.85;;;2.72;;
12593;SDS011;6362;50.208;9.182;2023-07-30T05:44:10;3.92;;;2.40;;
12593;SDS011;6362;50.208;9.182;2023-07-30T05:46:36;3.65;;;2.40;;
12593;SDS011;6362;50.208;9.182;2023-07-30T05:49:01;6.70;;;2.42;;
12593;SDS011;6362;50.208;9.182;2023-07-30T05:51:27;3.08;;;2.17;;
12593;SDS011;6362;50.208;9.182;2023-07-30T05:53:52;4.03;;;2.35;;
12593;SDS011;6362;50.208;9.182;2023-07-30T05:56:17;3.20;;;2.00;;
12593;SDS011;6362;50.208;9.182;2023-07-30T05:58:44;2.78;;;2.35;;
12593;SDS011;6362;50.208;9.182;2023-07-30T06:01:09;3.67;;;1.90;;
12593;SDS011;6362;50.208;9.182;2023-07-30T06:03:36;3.05;;;2.35;;
12593;SDS011;6362;50.208;9.182;2023-07-30T06:06:02;2.08;;;1.70;;
12593;SDS011;6362;50.208;9.182;2023-07-30T06:08:27;2.92;;;2.05;;
12593;SDS011;6362;50.208;9.182;2023-07-30T06:10:54;2.95;;;1.70;;
12593;SDS011;6362;50.208;9.182;2023-07-30T06:13:20;4.82;;;1.90;;
12593;SDS011;6362;50.208;9.182;2023-07-30T06:15:46;3.55;;;1.70;;
12593;SDS011;6362;50.208;9.182;2023-07-30T06:18:11;3.30;;;1.75;;
12593;SDS011;6362;50.208;9.182;2023-07-30T06:20:37;3.97;;;2.15;;
12593;SDS011;6362;50.208;9.182;2023-07-30T06:23:02;2.67;;;1.73;;
12593;SDS011;6362;50.208;9.182;2023-07-30T06:25:29;4.70;;;1.65;;
12593;SDS011;6362;50.208;9.182;2023-07-30T06:27:55;4.25;;;1.50;;
12593;SDS011;6362;50.208;9.182;2023-07-30T06:30:23;2.28;;;1.83;;
12593;SDS011;6362;50.208;9.182;2023-07-30T06:32:49;3.83;;;1.65;;
12593;SDS011;6362;50.208;9.182;2023-07-30T06:35:15;1.52;;;1.20;;
12593;SDS011;6362;50.208;9.182;2023-07-30T06:37:40;3.85;;;1.40;;
12593;SDS011;6362;50.208;9.182;2023-07-30T06:40:06;4.07;;;1.55;;
12593;SDS011;6362;50.208;9.182;2023-07-30T06:42:32;2.20;;;1.35;;
12593;SDS011;6362;50.208;9.182;2023-07-30T06:44:58;1.60;;;1.42;;
12593;SDS011;6362;50.208;9.182;2023-07-30T06:47:23;3.10;;;1.48;;
12593;SDS011;6362;50.208;9.182;2023-07-30T06:49:49;2.40;;;1.33;;
12593;SDS011;6362;50.208;9.182;2023-07-30T06:52:14;3.55;;;1.15;;
12593;SDS011;6362;50.208;9.182;2023-07-30T06:54:40;2.00;;;1.23;;
12593;SDS011;6362;50.208;9.182;2023-07-30T06:57:05;3.17;;;1.30;;
12593;SDS011;6362;50.208;9.182;2023-07-30T06:59:31;1.40;;;1.05;;
12593;SDS011;6362;50.208;9.182;2023-07-30T07:01:56;2.17;;;1.00;;
12593;SDS011;6362;50.208;9.182;2023-07-30T07:04:21;1.75;;;1.02;;
12593;SDS011;6362;50.208;9.182;2023-07-30T07:06:47;1.67;;;1.00;;
12593;SDS011;6362;50.208;9.182;2023-07-30T07:09:12;1.63;;;1.00;;
12593;SDS011;6362;50.208;9.182;2023-07-30T07:11:38;2.65;;;0.98;;
12593;SDS011;6362;50.208;9.182;2023-07-30T07:14:04;2.33;;;1.13;;
12593;SDS011;6362;50.208;9.182;2023-07-30T07:16:29;2.75;;;1.15;;
12593;SDS011;6362;50.208;9.182;2023-07-30T07:18:54;1.48;;;1.15;;
12593;SDS011;6362;50.208;9.182;2023-07-30T07:21:20;3.30;;;1.15;;
12593;SDS011;6362;50.208;9.182;2023-07-30T07:23:45;4.03;;;1.17;;
12593;SDS011;6362;50.208;9.182;2023-07-30T07:26:11;2.45;;;1.40;;
12593;SDS011;6362;50.208;9.182;2023-07-30T07:28:36;1.40;;;1.08;;
12593;SDS011;6362;50.208;9.182;2023-07-30T07:31:02;2.28;;;1.20;;
12593;SDS011;6362;50.208;9.182;2023-07-30T07:33:27;1.63;;;1.10;;
12593;SDS011;6362;50.208;9.182;2023-07-30T07:36:02;3.42;;;1.10;;
12593;SDS011;6362;50.208;9.182;2023-07-30T07:38:28;1.70;;;1.20;;
12593;SDS011;6362;50.208;9.182;2023-07-30T07:40:53;3.20;;;1.60;;
12593;SDS011;6362;50.208;9.182;2023-07-30T07:43:19;2.90;;;1.42;;
12593;SDS011;6362;50.208;9.182;2023-07-30T07:45:44;1.95;;;1.10;;
12593;SDS011;6362;50.208;9.182;2023-07-30T07:48:09;1.55;;;1.30;;
12593;SDS011;6362;50.208;9.182;2023-07-30T07:50:35;1.52;;;1.40;;
12593;SDS011;6362;50.208;9.182;2023-07-30T07:53:00;1.67;;;1.15;;
12593;SDS011;6362;50.208;9.182;2023-07-30T07:55:26;3.95;;;1.52;;
12593;SDS011;6362;50.208;9.182;2023-07-30T07:57:51;4.18;;;1.20;;
12593;SDS011;6362;50.208;9.182;2023-07-30T08:00:17;1.33;;;1.15;;
12593;SDS011;6362;50.208;9.182;2023-07-30T08:02:43;3.10;;;1.27;;
12593;SDS011;6362;50.208;9.182;2023-07-30T08:05:08;1.90;;;1.08;;
12593;SDS011;6362;50.208;9.182;2023-07-30T08:07:34;1.40;;;1.00;;
12593;SDS011;6362;50.208;9.182;2023-07-30T08:09:59;2.13;;;1.20;;
12593;SDS011;6362;50.208;9.182;2023-07-30T08:12:24;2.75;;;1.38;;
12593;SDS011;6362;50.208;9.182;2023-07-30T08:14:50;2.10;;;1.40;;
12593;SDS011;6362;50.208;9.182;2023-07-30T08:17:16;2.17;;;1.30;;
12593;SDS011;6362;50.208;9.182;2023-07-30T08:19:42;2.65;;;1.25;;
12593;SDS011;6362;50.208;9.182;2023-07-30T08:22:07;2.00;;;1.30;;
12593;SDS011;6362;50.208;9.182;2023-07-30T08:24:32;1.88;;;1.20;;
12593;SDS011;6362;50.208;9.182;2023-07-30T08:26:58;3.30;;;1.50;;
12593;SDS011;6362;50.208;9.182;2023-07-30T08:29:23;2.30;;;1.33;;
12593;SDS011;6362;50.208;9.182;2023-07-30T08:31:49;2.90;;;1.30;;
12593;SDS011;6362;50.208;9.182;2023-07-30T08:34:14;3.10;;;1.52;;
12593;SDS011;6362;50.208;9.182;2023-07-30T08:36:40;2.95;;;1.50;;
12593;SDS011;6362;50.208;9.182;2023-07-30T08:39:05;2.03;;;1.40;;
12593;SDS011;6362;50.208;9.182;2023-07-30T08:41:31;4.05;;;1.10;;
12593;SDS011;6362;50.208;9.182;2023-07-30T08:43:57;3.47;;;1.40;;
12593;SDS011;6362;50.208;9.182;2023-07-30T08:46:22;3.55;;;1.50;;
12593;SDS011;6362;50.208;9.182;2023-07-30T08:48:48;1.58;;;1.15;;
12593;SDS011;6362;50.208;9.182;2023-07-30T08:51:13;1.55;;;0.93;;
12593;SDS011;6362;50.208;9.182;2023-07-30T08:53:40;2.50;;;1.30;;
12593;SDS011;6362;50.208;9.182;2023-07-30T08:56:07;1.73;;;1.05;;
12593;SDS011;6362;50.208;9.182;2023-07-30T08:58:34;2.33;;;1.00;;
12593;SDS011;6362;50.208;9.182;2023-07-30T09:01:00;1.92;;;1.40;;
12593;SDS011;6362;50.208;9.182;2023-07-30T09:03:31;2.72;;;1.40;;
12593;SDS011;6362;50.208;9.182;2023-07-30T09:06:02;1.83;;;1.30;;
12593;SDS011;6362;50.208;9.182;2023-07-30T09:08:28;1.77;;;1.48;;
12593;SDS011;6362;50.208;9.182;2023-07-30T09:10:54;1.55;;;1.10;;
12593;SDS011;6362;50.208;9.182;2023-07-30T09:13:21;3.63;;;1.35;;
12593;SDS011;6362;50.208;9.182;2023-07-30T09:15:48;3.03;;;1.35;;
12593;SDS011;6362;50.208;9.182;2023-07-30T09:18:16;5.13;;;1.30;;
12593;SDS011;6362;50.208;9.182;2023-07-30T09:20:43;1.20;;;0.90;;
12593;SDS011;6362;50.208;9.182;2023-07-30T09:23:09;2.00;;;1.13;;
12593;SDS011;6362;50.208;9.182;2023-07-30T09:25:35;1.50;;;1.10;;
12593;SDS011;6362;50.208;9.182;2023-07-30T09:28:01;3.63;;;1.38;;
12593;SDS011;6362;50.208;9.182;2023-07-30T09:30:27;4.75;;;1.20;;
12593;SDS011;6362;50.208;9.182;2023-07-30T09:32:53;4.22;;;1.27;;
12593;SDS011;6362;50.208;9.182;2023-07-30T09:35:20;1.42;;;1.00;;
12593;SDS011;6362;50.208;9.182;2023-07-30T09:37:47;1.88;;;1.00;;
12593;SDS011;6362;50.208;9.182;2023-07-30T09:40:13;1.88;;;1.10;;
12593;SDS011;6362;50.208;9.182;2023-07-30T09:42:45;1.77;;;1.20;;
12593;SDS011;6362;50.208;9.182;2023-07-30T09:45:17;1.42;;;0.88;;
12593;SDS011;6362;50.208;9.182;2023-07-30T09:47:50;0.90;;;0.80;;
12593;SDS011;6362;50.208;9.182;2023-07-30T09:50:16;1.20;;;0.90;;
12593;SDS011;6362;50.208;9.182;2023-07-30T09:52:42;1.73;;;0.80;;
12593;SDS011;6362;50.208;9.182;2023-07-30T09:55:08;2.05;;;0.93;;
12593;SDS011;6362;50.208;9.182;2023-07-30T09:57:34;1.35;;;0.93;;
12593;SDS011;6362;50.208;9.182;2023-07-30T10:00:01;4.45;;;1.33;;
12593;SDS011;6362;50.208;9.182;2023-07-30T10:02:28;2.08;;;1.40;;
12593;SDS011;6362;50.208;9.182;2023-07-30T10:04:59;1.60;;;1.30;;
12593;SDS011;6362;50.208;9.182;2023-07-30T10:07:25;1.70;;;1.20;;
12593;SDS011;6362;50.208;9.182;2023-07-30T10:09:54;2.47;;;1.42;;
12593;SDS011;6362;50.208;9.182;2023-07-30T10:12:24;2.58;;;1.50;;
12593;SDS011;6362;50.208;9.182;2023-07-30T10:14:53;2.50;;;1.60;;
12593;SDS011;6362;50.208;9.182;2023-07-30T10:17:19;1.70;;;1.60;;
12593;SDS011;6362;50.208;9.182;2023-07-30T10:19:48;3.63;;;1.50;;
12593;SDS011;6362;50.208;9.182;2023-07-30T10:24:56;1.73;;;1.63;;
12593;SDS011;6362;50.208;9.182;2023-07-30T10:27:35;3.17;;;1.30;;
12593;SDS011;6362;50.208;9.182;2023-07-30T10:32:39;4.28;;;1.50;;
12593;SDS011;6362;50.208;9.182;2023-07-30T10:38:12;2.45;;;0.95;;
12593;SDS011;6362;50.208;9.182;2023-07-30T10:41:09;1.05;;;0.63;;
12593;SDS011;6362;50.208;9.182;2023-07-30T10:43:41;0.50;;;0.40;;
12593;SDS011;6362;50.208;9.182;2023-07-30T10:46:15;0.30;;;0.30;;
12593;SDS011;6362;50.208;9.182;2023-07-30T10:48:45;1.05;;;0.70;;
12593;SDS011;6362;50.208;9.182;2023-07-30T10:51:12;0.98;;;0.47;;
12593;SDS011;6362;50.208;9.182;2023-07-30T10:53:44;2.67;;;0.52;;
12593;SDS011;6362;50.208;9.182;2023-07-30T10:56:15;1.15;;;0.60;;
12593;SDS011;6362;50.208;9.182;2023-07-30T10:58:43;0.70;;;0.50;;
12593;SDS011;6362;50.208;9.182;2023-07-30T11:01:13;2.03;;;0.98;;
12593;SDS011;6362;50.208;9.182;2023-07-30T11:03:39;2.33;;;0.50;;
12593;SDS011;6362;50.208;9.182;2023-07-30T11:06:04;0.63;;;0.50;;
12593;SDS011;6362;50.208;9.182;2023-07-30T11:08:34;0.77;;;0.40;;
12593;SDS011;6362;50.208;9.182;2023-07-30T11:11:03;1.02;;;0.57;;
12593;SDS011;6362;50.208;9.182;2023-07-30T11:13:34;1.20;;;0.32;;
12593;SDS011;6362;50.208;9.182;2023-07-30T11:16:05;3.60;;;1.33;;
12593;SDS011;6362;50.208;9.182;2023-07-30T11:18:32;0.30;;;0.30;;
12593;SDS011;6362;50.208;9.182;2023-07-30T11:21:04;0.68;;;0.47;;
12593;SDS011;6362;50.208;9.182;2023-07-30T11:23:29;1.25;;;0.60;;
12593;SDS011;6362;50.208;9.182;2023-07-30T11:25:55;0.57;;;0.35;;
12593;SDS011;6362;50.208;9.182;2023-07-30T11:28:29;1.25;;;0.60;;
12593;SDS011;6362;50.208;9.182;2023-07-30T11:30:57;1.08;;;0.43;;
12593;SDS011;6362;50.208;9.182;2023-07-30T11:33:24;0.30;;;0.30;;
12593;SDS011;6362;50.208;9.182;2023-07-30T11:35:50;0.80;;;0.50;;
12593;SDS011;6362;50.208;9.182;2023-07-30T11:38:15;1.08;;;0.55;;
12593;SDS011;6362;50.208;9.182;2023-07-30T11:40:44;1.90;;;1.10;;
12593;SDS011;6362;50.208;9.182;2023-07-30T11:43:11;0.93;;;0.43;;
12593;SDS011;6362;50.208;9.182;2023-07-30T11:45:37;2.20;;;0.70;;
12593;SDS011;6362;50.208;9.182;2023-07-30T11:48:06;0.88;;;0.77;;
12593;SDS011;6362;50.208;9.182;2023-07-30T11:50:51;3.85;;;0.63;;
12593;SDS011;6362;50.208;9.182;2023-07-30T11:53:17;1.02;;;0.60;;
12593;SDS011;6362;50.208;9.182;2023-07-30T11:55:43;0.50;;;0.43;;
12593;SDS011;6362;50.208;9.182;2023-07-30T11:58:10;3.13;;;0.60;;
12593;SDS011;6362;50.208;9.182;2023-07-30T12:00:40;1.42;;;0.60;;
12593;SDS011;6362;50.208;9.182;2023-07-30T12:03:07;1.33;;;0.70;;
12593;SDS011;6362;50.208;9.182;2023-07-30T12:05:37;2.50;;;0.90;;
12593;SDS011;6362;50.208;9.182;2023-07-30T12:08:04;1.40;;;0.50;;
12593;SDS011;6362;50.208;9.182;2023-07-30T12:10:42;0.95;;;0.77;;
12593;SDS011;6362;50.208;9.182;2023-07-30T12:13:13;1.35;;;0.70;;
12593;SDS011;6362;50.208;9.182;2023-07-30T12:15:42;1.75;;;0.70;;
12593;SDS011;6362;50.208;9.182;2023-07-30T12:18:09;1.05;;;0.70;;
12593;SDS011;6362;50.208;9.182;2023-07-30T12:20:34;1.90;;;0.73;;
12593;SDS011;6362;50.208;9.182;2023-07-30T12:23:00;3.17;;;0.90;;
12593;SDS011;6362;50.208;9.182;2023-07-30T12:25:26;3.13;;;1.00;;
12593;SDS011;6362;50.208;9.182;2023-07-30T12:27:51;2.88;;;1.30;;
12593;SDS011;6362;50.208;9.182;2023-07-30T12:30:17;2.58;;;1.08;;
12593;SDS011;6362;50.208;9.182;2023-07-30T12:32:43;3.25;;;0.70;;
12593;SDS011;6362;50.208;9.182;2023-07-30T12:35:08;4.70;;;0.80;;
12593;SDS011;6362;50.208;9.182;2023-07-30T12:37:34;3.30;;;0.88;;
12593;SDS011;6362;50.208;9.182;2023-07-30T12:40:00;3.15;;;0.90;;
12593;SDS011;6362;50.208;9.182;2023-07-30T12:42:26;3.45;;;0.90;;
12593;SDS011;6362;50.208;9.182;2023-07-30T12:44:51;2.85;;;1.20;;
12593;SDS011;6362;50.208;9.182;2023-07-30T12:47:16;1.77;;;0.68;;
12593;SDS011;6362;50.208;9.182;2023-07-30T12:49:42;4.45;;;1.25;;
12593;SDS011;6362;50.208;9.182;2023-07-30T12:52:07;4.68;;;1.17;;
12593;SDS011;6362;50.208;9.182;2023-07-30T12:54:33;4.75;;;1.20;;
12593;SDS011;6362;50.208;9.182;2023-07-30T12:56:58;2.60;;;1.02;;
12593;SDS011;6362;50.208;9.182;2023-07-30T12:59:24;3.78;;;1.08;;
12593;SDS011;6362;50.208;9.182;2023-07-30T13:01:49;3.15;;;0.93;;
12593;SDS011;6362;50.208;9.182;2023-07-30T13:04:15;5.57;;;1.20;;
12593;SDS011;6362;50.208;9.182;2023-07-30T13:06:40;5.15;;;1.52;;
12593;SDS011;6362;50.208;9.182;2023-07-30T13:09:05;6.97;;;1.30;;
12593;SDS011;6362;50.208;9.182;2023-07-30T13:11:31;5.28;;;1.10;;
12593;SDS011;6362;50.208;9.182;2023-07-30T13:13:56;2.67;;;1.05;;
12593;SDS011;6362;50.208;9.182;2023-07-30T13:16:22;3.92;;;1.00;;
12593;SDS011;6362;50.208;9.182;2023-07-30T13:18:47;3.40;;;1.10;;
12593;SDS011;6362;50.208;9.182;2023-07-30T13:21:12;2.72;;;0.90;;
12593;SDS011;6362;50.208;9.182;2023-07-30T13:23:38;4.05;;;1.15;;
12593;SDS011;6362;50.208;9.182;2023-07-30T13:26:03;5.32;;;1.33;;
12593;SDS011;6362;50.208;9.182;2023-07-30T13:28:28;3.70;;;1.27;;
12593;SDS011;6362;50.208;9.182;2023-07-30T13:30:54;4.78;;;1.17;;
12593;SDS011;6362;50.208;9.182;2023-07-30T13:33:19;4.38;;;1.05;;
12593;SDS011;6362;50.208;9.182;2023-07-30T13:35:45;4.38;;;1.10;;
12593;SDS011;6362;50.208;9.182;2023-07-30T13:38:10;4.70;;;1.30;;
12593;SDS011;6362;50.208;9.182;2023-07-30T13:40:36;3.67;;;1.00;;
12593;SDS011;6362;50.208;9.182;2023-07-30T13:43:01;4.25;;;1.52;;
12593;SDS011;6362;50.208;9.182;2023-07-30T13:45:26;5.15;;;1.10;;
12593;SDS011;6362;50.208;9.182;2023-07-30T13:47:53;2.40;;;0.93;;
12593;SDS011;6362;50.208;9.182;2023-07-30T13:50:18;5.32;;;1.13;;
12593;SDS011;6362;50.208;9.182;2023-07-30T13:52:44;3.03;;;1.10;;
12593;SDS011;6362;50.208;9.182;2023-07-30T13:55:09;2.85;;;0.60;;
12593;SDS011;6362;50.208;9.182;2023-07-30T13:57:35;3.08;;;1.02;;
12593;SDS011;6362;50.208;9.182;2023-07-30T14:00:00;4.40;;;1.27;;
12593;SDS011;6362;50.208;9.182;2023-07-30T14:02:25;1.95;;;0.82;;
12593;SDS011;6362;50.208;9.182;2023-07-30T14:04:51;2.60;;;0.85;;
12593;SDS011;6362;50.208;9.182;2023-07-30T14:07:16;3.15;;;0.88;;
12593;SDS011;6362;50.208;9.182;2023-07-30T14:09:42;3.47;;;0.80;;
12593;SDS011;6362;50.208;9.182;2023-07-30T14:12:08;5.45;;;1.27;;
12593;SDS011;6362;50.208;9.182;2023-07-30T14:14:34;2.55;;;1.10;;
12593;SDS011;6362;50.208;9.182;2023-07-30T14:16:59;3.47;;;1.02;;
12593;SDS011;6362;50.208;9.182;2023-07-30T14:19:31;5.00;;;0.90;;
12593;SDS011;6362;50.208;9.182;2023-07-30T14:21:56;2.80;;;1.00;;
12593;SDS011;6362;50.208;9.182;2023-07-30T14:24:21;2.58;;;0.85;;
12593;SDS011;6362;50.208;9.182;2023-07-30T14:26:48;4.22;;;1.15;;
12593;SDS011;6362;50.208;9.182;2023-07-30T14:29:13;2.42;;;0.73;;
12593;SDS011;6362;50.208;9.182;2023-07-30T14:31:39;8.20;;;0.85;;
12593;SDS011;6362;50.208;9.182;2023-07-30T14:34:04;4.80;;;1.10;;
12593;SDS011;6362;50.208;9.182;2023-07-30T14:36:29;4.32;;;1.08;;
12593;SDS011;6362;50.208;9.182;2023-07-30T14:38:55;3.10;;;1.02;;
12593;SDS011;6362;50.208;9.182;2023-07-30T14:41:20;3.60;;;0.60;;
12593;SDS011;6362;50.208;9.182;2023-07-30T14:43:46;4.20;;;0.95;;
12593;SDS011;6362;50.208;9.182;2023-07-30T14:46:11;3.25;;;1.02;;
12593;SDS011;6362;50.208;9.182;2023-07-30T14:48:41;1.52;;;0.60;;
12593;SDS011;6362;50.208;9.182;2023-07-30T14:51:08;7.38;;;1.50;;
12593;SDS011;6362;50.208;9.182;2023-07-30T14:53:34;3.50;;;1.25;;
12593;SDS011;6362;50.208;9.182;2023-07-30T14:56:00;3.22;;;0.80;;
12593;SDS011;6362;50.208;9.182;2023-07-30T14:58:25;4.40;;;1.00;;
12593;SDS011;6362;50.208;9.182;2023-07-30T15:00:51;4.05;;;0.90;;
12593;SDS011;6362;50.208;9.182;2023-07-30T15:03:16;6.18;;;1.00;;